sensor_id;sensor_type;location;lat;lon;timestamp;temperature;humidity
18930;DHT22;43305;52.186;5.598;2024-03-22T00:02:18;10.60;99.90
18930;DHT22;43305;52.186;5.598;2024-03-22T00:04:45;10.60;99.90
18930;DHT22;43305;52.186;5.598;2024-03-22T00:07:12;10.60;99.90
18930;DHT22;43305;52.186;5.598;2024-03-22T00:09:39;10.60;99.90
18930;DHT22;43305;52.186;5.598;2024-03-22T00:12:06;10.70;99.90
18930;DHT22;43305;52.186;5.598;2024-03-22T00:14:32;10.70;99.90
18930;DHT22;43305;52.186;5.598;2024-03-22T00:16:58;10.70;99.90
18930;DHT22;43305;52.186;5.598;2024-03-22T00:19:25;10.70;99.90
18930;DHT22;43305;52.186;5.598;2024-03-22T00:21:51;10.70;99.90
18930;DHT22;43305;52.186;5.598;2024-03-22T00:24:19;10.70;99.90
18930;DHT22;43305;52.186;5.598;2024-03-22T00:26:45;10.80;99.90
18930;DHT22;43305;52.186;5.598;2024-03-22T00:29:12;10.70;99.90
18930;DHT22;43305;52.186;5.598;2024-03-22T00:31:38;10.80;99.90
18930;DHT22;43305;52.186;5.598;2024-03-22T00:34:05;10.80;99.90
18930;DHT22;43305;52.186;5.598;2024-03-22T00:36:31;10.80;99.90
18930;DHT22;43305;52.186;5.598;2024-03-22T00:38:58;10.70;99.90
18930;DHT22;43305;52.186;5.598;2024-03-22T00:41:28;10.70;99.90
18930;DHT22;43305;52.186;5.598;2024-03-22T00:43:55;10.70;99.90
18930;DHT22;43305;52.186;5.598;2024-03-22T00:46:21;10.70;99.90
18930;DHT22;43305;52.186;5.598;2024-03-22T00:48:48;10.70;99.90
18930;DHT22;43305;52.186;5.598;2024-03-22T00:51:14;10.70;99.90
18930;DHT22;43305;52.186;5.598;2024-03-22T00:53:40;10.70;99.90
18930;DHT22;43305;52.186;5.598;2024-03-22T00:56:06;10.80;99.90
18930;DHT22;43305;52.186;5.598;2024-03-22T00:58:35;10.80;99.90
18930;DHT22;43305;52.186;5.598;2024-03-22T01:01:00;10.80;99.90
18930;DHT22;43305;52.186;5.598;2024-03-22T01:03:30;10.80;99.90
18930;DHT22;43305;52.186;5.598;2024-03-22T01:05:56;10.80;99.90
18930;DHT22;43305;52.186;5.598;2024-03-22T01:08:26;10.80;99.90
18930;DHT22;43305;52.186;5.598;2024-03-22T01:10:53;10.80;99.90
18930;DHT22;43305;52.186;5.598;2024-03-22T01:13:23;10.80;99.90
18930;DHT22;43305;52.186;5.598;2024-03-22T01:15:50;10.80;99.90
18930;DHT22;43305;52.186;5.598;2024-03-22T01:18:17;10.80;99.90
18930;DHT22;43305;52.186;5.598;2024-03-22T01:20:43;10.80;99.90
18930;DHT22;43305;52.186;5.598;2024-03-22T01:23:10;10.90;99.90
18930;DHT22;43305;52.186;5.598;2024-03-22T01:25:35;10.90;99.90
18930;DHT22;43305;52.186;5.598;2024-03-22T01:28:03;10.90;99.90
18930;DHT22;43305;52.186;5.598;2024-03-22T01:30:29;10.80;99.90
18930;DHT22;43305;52.186;5.598;2024-03-22T01:32:58;10.80;99.90
18930;DHT22;43305;52.186;5.598;2024-03-22T01:35:26;10.80;99.90
18930;DHT22;43305;52.186;5.598;2024-03-22T01:37:53;10.80;99.90
18930;DHT22;43305;52.186;5.598;2024-03-22T01:40:22;10.80;99.90
18930;DHT22;43305;52.186;5.598;2024-03-22T01:42:53;10.80;99.90
18930;DHT22;43305;52.186;5.598;2024-03-22T01:45:18;10.80;99.90
18930;DHT22;43305;52.186;5.598;2024-03-22T01:47:46;10.90;99.90
18930;DHT22;43305;52.186;5.598;2024-03-22T01:50:13;10.90;99.90
18930;DHT22;43305;52.186;5.598;2024-03-22T01:52:40;10.90;99.90
18930;DHT22;43305;52.186;5.598;2024-03-22T01:55:07;10.90;99.90
18930;DHT22;43305;52.186;5.598;2024-03-22T01:57:34;10.90;99.90
18930;DHT22;43305;52.186;5.598;2024-03-22T02:00:01;10.90;99.90
18930;DHT22;43305;52.186;5.598;2024-03-22T02:02:28;10.90;99.90
18930;DHT22;43305;52.186;5.598;2024-03-22T02:04:57;10.90;99.90
18930;DHT22;43305;52.186;5.598;2024-03-22T02:07:27;10.90;99.90
18930;DHT22;43305;52.186;5.598;2024-03-22T02:09:55;10.90;99.90
18930;DHT22;43305;52.186;5.598;2024-03-22T02:12:23;10.90;99.90
18930;DHT22;43305;52.186;5.598;2024-03-22T02:14:50;10.90;99.90
18930;DHT22;43305;52.186;5.598;2024-03-22T02:17:17;10.90;99.90
18930;DHT22;43305;52.186;5.598;2024-03-22T02:19:43;10.90;99.90
18930;DHT22;43305;52.186;5.598;2024-03-22T02:22:09;10.90;99.90
18930;DHT22;43305;52.186;5.598;2024-03-22T02:24:37;10.90;99.90
18930;DHT22;43305;52.186;5.598;2024-03-22T02:27:03;10.90;99.90
18930;DHT22;43305;52.186;5.598;2024-03-22T02:29:29;10.90;99.90
18930;DHT22;43305;52.186;5.598;2024-03-22T02:31:56;10.90;99.90
18930;DHT22;43305;52.186;5.598;2024-03-22T02:34:26;10.90;99.90
18930;DHT22;43305;52.186;5.598;2024-03-22T02:36:53;11.00;99.90
18930;DHT22;43305;52.186;5.598;2024-03-22T02:39:21;10.90;99.90
18930;DHT22;43305;52.186;5.598;2024-03-22T02:41:49;10.90;99.90
18930;DHT22;43305;52.186;5.598;2024-03-22T02:44:15;10.90;99.90
18930;DHT22;43305;52.186;5.598;2024-03-22T02:46:42;11.00;99.90
18930;DHT22;43305;52.186;5.598;2024-03-22T02:49:08;10.90;99.90
18930;DHT22;43305;52.186;5.598;2024-03-22T02:51:35;11.00;99.90
18930;DHT22;43305;52.186;5.598;2024-03-22T02:54:01;10.90;99.90
18930;DHT22;43305;52.186;5.598;2024-03-22T02:56:28;10.90;99.90
18930;DHT22;43305;52.186;5.598;2024-03-22T02:58:58;11.00;99.90
18930;DHT22;43305;52.186;5.598;2024-03-22T03:01:25;11.00;99.90
18930;DHT22;43305;52.186;5.598;2024-03-22T03:03:51;11.00;99.90
18930;DHT22;43305;52.186;5.598;2024-03-22T03:06:17;11.00;99.90
18930;DHT22;43305;52.186;5.598;2024-03-22T03:08:45;11.00;99.90
18930;DHT22;43305;52.186;5.598;2024-03-22T03:11:13;11.00;99.90
18930;DHT22;43305;52.186;5.598;2024-03-22T03:13:39;10.90;99.90
18930;DHT22;43305;52.186;5.598;2024-03-22T03:16:07;10.90;99.90
18930;DHT22;43305;52.186;5.598;2024-03-22T03:18:33;11.00;99.90
18930;DHT22;43305;52.186;5.598;2024-03-22T03:21:00;10.90;99.90
18930;DHT22;43305;52.186;5.598;2024-03-22T03:23:26;10.90;99.90
18930;DHT22;43305;52.186;5.598;2024-03-22T03:25:52;10.90;99.90
18930;DHT22;43305;52.186;5.598;2024-03-22T03:28:18;10.90;99.90
18930;DHT22;43305;52.186;5.598;2024-03-22T03:30:45;10.90;99.90
18930;DHT22;43305;52.186;5.598;2024-03-22T03:33:12;10.90;99.90
18930;DHT22;43305;52.186;5.598;2024-03-22T03:35:39;10.80;99.90
18930;DHT22;43305;52.186;5.598;2024-03-22T03:38:05;10.80;99.90
18930;DHT22;43305;52.186;5.598;2024-03-22T03:40:32;10.80;99.90
18930;DHT22;43305;52.186;5.598;2024-03-22T03:42:58;10.80;99.90
18930;DHT22;43305;52.186;5.598;2024-03-22T03:45:28;10.70;99.90
18930;DHT22;43305;52.186;5.598;2024-03-22T03:47:53;10.70;99.90
18930;DHT22;43305;52.186;5.598;2024-03-22T03:50:25;10.60;99.90
18930;DHT22;43305;52.186;5.598;2024-03-22T03:52:50;10.60;99.90
18930;DHT22;43305;52.186;5.598;2024-03-22T03:55:17;10.60;99.90
18930;DHT22;43305;52.186;5.598;2024-03-22T03:57:43;10.50;99.90
18930;DHT22;43305;52.186;5.598;2024-03-22T04:00:11;10.50;99.90
18930;DHT22;43305;52.186;5.598;2024-03-22T04:02:36;10.50;99.90
18930;DHT22;43305;52.186;5.598;2024-03-22T04:05:04;10.40;99.90
18930;DHT22;43305;52.186;5.598;2024-03-22T04:07:31;10.40;99.90
18930;DHT22;43305;52.186;5.598;2024-03-22T04:09:58;10.40;99.90
18930;DHT22;43305;52.186;5.598;2024-03-22T04:12:25;10.40;99.90
18930;DHT22;43305;52.186;5.598;2024-03-22T04:14:52;10.40;99.90
18930;DHT22;43305;52.186;5.598;2024-03-22T04:17:18;10.40;99.90
18930;DHT22;43305;52.186;5.598;2024-03-22T04:19:45;10.40;99.90
18930;DHT22;43305;52.186;5.598;2024-03-22T04:22:11;10.40;99.90
18930;DHT22;43305;52.186;5.598;2024-03-22T04:24:39;10.40;99.90
18930;DHT22;43305;52.186;5.598;2024-03-22T04:27:05;10.40;99.90
18930;DHT22;43305;52.186;5.598;2024-03-22T04:29:32;10.30;99.90
18930;DHT22;43305;52.186;5.598;2024-03-22T04:31:58;10.30;99.90
18930;DHT22;43305;52.186;5.598;2024-03-22T04:34:25;10.30;99.90
18930;DHT22;43305;52.186;5.598;2024-03-22T04:36:51;10.30;99.90
18930;DHT22;43305;52.186;5.598;2024-03-22T04:39:19;10.30;99.90
18930;DHT22;43305;52.186;5.598;2024-03-22T04:41:47;10.30;99.90
18930;DHT22;43305;52.186;5.598;2024-03-22T04:44:14;10.30;99.90
18930;DHT22;43305;52.186;5.598;2024-03-22T04:46:41;10.20;99.90
18930;DHT22;43305;52.186;5.598;2024-03-22T04:49:07;10.20;99.90
18930;DHT22;43305;52.186;5.598;2024-03-22T04:51:34;10.20;99.90
18930;DHT22;43305;52.186;5.598;2024-03-22T04:54:00;10.20;99.90
18930;DHT22;43305;52.186;5.598;2024-03-22T04:56:27;10.20;99.90
18930;DHT22;43305;52.186;5.598;2024-03-22T04:58:57;10.20;99.90
18930;DHT22;43305;52.186;5.598;2024-03-22T05:01:27;10.20;99.90
18930;DHT22;43305;52.186;5.598;2024-03-22T05:03:52;10.20;99.90
18930;DHT22;43305;52.186;5.598;2024-03-22T05:06:21;10.20;99.90
18930;DHT22;43305;52.186;5.598;2024-03-22T05:08:46;10.20;99.90
18930;DHT22;43305;52.186;5.598;2024-03-22T05:11:13;10.20;99.90
18930;DHT22;43305;52.186;5.598;2024-03-22T05:13:39;10.10;99.90
18930;DHT22;43305;52.186;5.598;2024-03-22T05:16:07;10.20;99.90
18930;DHT22;43305;52.186;5.598;2024-03-22T05:18:33;10.20;99.90
18930;DHT22;43305;52.186;5.598;2024-03-22T05:21:00;10.10;99.90
18930;DHT22;43305;52.186;5.598;2024-03-22T05:23:26;10.20;99.90
18930;DHT22;43305;52.186;5.598;2024-03-22T05:25:53;10.20;99.90
18930;DHT22;43305;52.186;5.598;2024-03-22T05:28:18;10.10;99.90
18930;DHT22;43305;52.186;5.598;2024-03-22T05:30:46;10.10;99.90
18930;DHT22;43305;52.186;5.598;2024-03-22T05:33:14;10.10;99.90
18930;DHT22;43305;52.186;5.598;2024-03-22T05:35:40;10.10;99.90
18930;DHT22;43305;52.186;5.598;2024-03-22T05:38:07;10.20;99.90
18930;DHT22;43305;52.186;5.598;2024-03-22T05:40:36;10.20;99.90
18930;DHT22;43305;52.186;5.598;2024-03-22T05:43:04;10.20;99.90
18930;DHT22;43305;52.186;5.598;2024-03-22T05:45:30;10.20;99.90
18930;DHT22;43305;52.186;5.598;2024-03-22T05:47:57;10.10;99.90
18930;DHT22;43305;52.186;5.598;2024-03-22T05:50:25;10.10;99.90
18930;DHT22;43305;52.186;5.598;2024-03-22T05:52:51;10.10;99.90
18930;DHT22;43305;52.186;5.598;2024-03-22T05:55:18;10.10;99.90
18930;DHT22;43305;52.186;5.598;2024-03-22T05:57:43;10.10;99.90
18930;DHT22;43305;52.186;5.598;2024-03-22T06:00:11;10.10;99.90
18930;DHT22;43305;52.186;5.598;2024-03-22T06:02:38;10.10;99.90
18930;DHT22;43305;52.186;5.598;2024-03-22T06:05:06;10.10;99.90
18930;DHT22;43305;52.186;5.598;2024-03-22T06:07:33;10.10;99.90
18930;DHT22;43305;52.186;5.598;2024-03-22T06:10:07;10.10;99.90
18930;DHT22;43305;52.186;5.598;2024-03-22T06:12:33;10.10;99.90
18930;DHT22;43305;52.186;5.598;2024-03-22T06:15:00;10.10;99.90
18930;DHT22;43305;52.186;5.598;2024-03-22T06:17:31;10.10;99.90
18930;DHT22;43305;52.186;5.598;2024-03-22T06:19:58;10.10;99.90
18930;DHT22;43305;52.186;5.598;2024-03-22T06:22:25;10.10;99.90
18930;DHT22;43305;52.186;5.598;2024-03-22T06:24:55;10.10;99.90
18930;DHT22;43305;52.186;5.598;2024-03-22T06:27:21;10.20;99.90
18930;DHT22;43305;52.186;5.598;2024-03-22T06:29:48;10.20;99.90
18930;DHT22;43305;52.186;5.598;2024-03-22T06:32:13;10.30;99.90
18930;DHT22;43305;52.186;5.598;2024-03-22T06:34:40;10.20;99.90
18930;DHT22;43305;52.186;5.598;2024-03-22T06:37:06;10.30;99.90
18930;DHT22;43305;52.186;5.598;2024-03-22T06:39:33;10.30;99.90
18930;DHT22;43305;52.186;5.598;2024-03-22T06:42:00;10.30;99.90
18930;DHT22;43305;52.186;5.598;2024-03-22T06:44:27;10.30;99.90
18930;DHT22;43305;52.186;5.598;2024-03-22T06:46:53;10.30;99.90
18930;DHT22;43305;52.186;5.598;2024-03-22T06:49:22;10.30;99.90
18930;DHT22;43305;52.186;5.598;2024-03-22T06:51:48;10.30;99.90
18930;DHT22;43305;52.186;5.598;2024-03-22T06:54:16;10.30;99.90
18930;DHT22;43305;52.186;5.598;2024-03-22T06:56:42;10.40;99.90
18930;DHT22;43305;52.186;5.598;2024-03-22T06:59:10;10.40;99.90
18930;DHT22;43305;52.186;5.598;2024-03-22T07:01:36;10.40;99.90
18930;DHT22;43305;52.186;5.598;2024-03-22T07:04:03;10.40;99.90
18930;DHT22;43305;52.186;5.598;2024-03-22T07:06:29;10.50;99.90
18930;DHT22;43305;52.186;5.598;2024-03-22T07:08:56;10.50;99.90
18930;DHT22;43305;52.186;5.598;2024-03-22T07:11:21;10.50;99.90
18930;DHT22;43305;52.186;5.598;2024-03-22T07:13:48;10.50;99.90
18930;DHT22;43305;52.186;5.598;2024-03-22T07:16:15;10.60;99.90
18930;DHT22;43305;52.186;5.598;2024-03-22T07:18:42;10.60;99.90
18930;DHT22;43305;52.186;5.598;2024-03-22T07:21:08;10.60;99.90
18930;DHT22;43305;52.186;5.598;2024-03-22T07:23:35;10.60;99.90
18930;DHT22;43305;52.186;5.598;2024-03-22T07:26:01;10.60;99.90
18930;DHT22;43305;52.186;5.598;2024-03-22T07:28:28;10.60;99.90
18930;DHT22;43305;52.186;5.598;2024-03-22T07:30:57;10.70;99.90
18930;DHT22;43305;52.186;5.598;2024-03-22T07:33:27;10.70;99.90
18930;DHT22;43305;52.186;5.598;2024-03-22T07:35:53;10.70;99.90
18930;DHT22;43305;52.186;5.598;2024-03-22T07:38:26;10.70;99.90
18930;DHT22;43305;52.186;5.598;2024-03-22T07:40:53;10.70;99.90
18930;DHT22;43305;52.186;5.598;2024-03-22T07:43:20;10.70;99.90
18930;DHT22;43305;52.186;5.598;2024-03-22T07:45:46;10.70;99.90
18930;DHT22;43305;52.186;5.598;2024-03-22T07:48:13;10.70;99.90
18930;DHT22;43305;52.186;5.598;2024-03-22T07:50:40;10.70;99.90
18930;DHT22;43305;52.186;5.598;2024-03-22T07:53:07;10.60;99.90
18930;DHT22;43305;52.186;5.598;2024-03-22T07:55:33;10.60;99.90
18930;DHT22;43305;52.186;5.598;2024-03-22T07:58:00;10.60;99.90
18930;DHT22;43305;52.186;5.598;2024-03-22T08:00:26;10.60;99.90
18930;DHT22;43305;52.186;5.598;2024-03-22T08:02:53;10.60;99.90
18930;DHT22;43305;52.186;5.598;2024-03-22T08:05:19;10.60;99.90
18930;DHT22;43305;52.186;5.598;2024-03-22T08:07:47;10.60;99.90
18930;DHT22;43305;52.186;5.598;2024-03-22T08:10:13;10.60;99.90
18930;DHT22;43305;52.186;5.598;2024-03-22T08:12:44;10.60;99.90
18930;DHT22;43305;52.186;5.598;2024-03-22T08:15:10;10.60;99.90
18930;DHT22;43305;52.186;5.598;2024-03-22T08:17:37;10.60;99.90
18930;DHT22;43305;52.186;5.598;2024-03-22T08:20:03;10.60;99.90
18930;DHT22;43305;52.186;5.598;2024-03-22T08:22:30;10.60;99.90
18930;DHT22;43305;52.186;5.598;2024-03-22T08:24:57;10.60;99.90
18930;DHT22;43305;52.186;5.598;2024-03-22T08:27:27;10.70;99.90
18930;DHT22;43305;52.186;5.598;2024-03-22T08:29:53;10.60;99.90
18930;DHT22;43305;52.186;5.598;2024-03-22T08:32:22;10.60;99.90
18930;DHT22;43305;52.186;5.598;2024-03-22T08:34:48;10.60;99.90
18930;DHT22;43305;52.186;5.598;2024-03-22T08:37:15;10.60;99.90
18930;DHT22;43305;52.186;5.598;2024-03-22T08:39:40;10.60;99.90
18930;DHT22;43305;52.186;5.598;2024-03-22T08:42:09;10.60;99.90
18930;DHT22;43305;52.186;5.598;2024-03-22T08:44:35;10.60;99.90
18930;DHT22;43305;52.186;5.598;2024-03-22T08:47:02;10.60;99.90
18930;DHT22;43305;52.186;5.598;2024-03-22T08:49:27;10.50;99.90
18930;DHT22;43305;52.186;5.598;2024-03-22T08:51:56;10.50;99.90
18930;DHT22;43305;52.186;5.598;2024-03-22T08:54:21;10.50;99.90
18930;DHT22;43305;52.186;5.598;2024-03-22T08:56:48;10.50;99.90
18930;DHT22;43305;52.186;5.598;2024-03-22T08:59:16;10.50;99.90
18930;DHT22;43305;52.186;5.598;2024-03-22T09:01:42;10.40;99.90
18930;DHT22;43305;52.186;5.598;2024-03-22T09:04:08;10.40;99.90
18930;DHT22;43305;52.186;5.598;2024-03-22T09:06:35;10.40;99.90
18930;DHT22;43305;52.186;5.598;2024-03-22T09:09:01;10.40;99.90
18930;DHT22;43305;52.186;5.598;2024-03-22T09:11:29;10.40;99.90
18930;DHT22;43305;52.186;5.598;2024-03-22T09:13:55;10.50;99.90
18930;DHT22;43305;52.186;5.598;2024-03-22T09:16:26;10.50;99.90
18930;DHT22;43305;52.186;5.598;2024-03-22T09:18:52;10.50;99.90
18930;DHT22;43305;52.186;5.598;2024-03-22T09:21:20;10.40;99.90
18930;DHT22;43305;52.186;5.598;2024-03-22T09:23:45;10.50;99.90
18930;DHT22;43305;52.186;5.598;2024-03-22T09:26:12;10.40;99.90
18930;DHT22;43305;52.186;5.598;2024-03-22T09:28:39;10.40;99.90
18930;DHT22;43305;52.186;5.598;2024-03-22T09:31:06;10.40;99.90
18930;DHT22;43305;52.186;5.598;2024-03-22T09:33:34;10.40;99.90
18930;DHT22;43305;52.186;5.598;2024-03-22T09:36:01;10.40;99.90
18930;DHT22;43305;52.186;5.598;2024-03-22T09:38:27;10.40;99.90
18930;DHT22;43305;52.186;5.598;2024-03-22T09:40:57;10.40;99.90
18930;DHT22;43305;52.186;5.598;2024-03-22T09:43:26;10.40;99.90
18930;DHT22;43305;52.186;5.598;2024-03-22T09:45:57;10.40;99.90
18930;DHT22;43305;52.186;5.598;2024-03-22T09:48:28;10.40;99.90
18930;DHT22;43305;52.186;5.598;2024-03-22T09:50:58;10.40;99.90
18930;DHT22;43305;52.186;5.598;2024-03-22T09:53:27;10.40;99.90
18930;DHT22;43305;52.186;5.598;2024-03-22T09:55:56;10.40;99.90
18930;DHT22;43305;52.186;5.598;2024-03-22T09:58:28;10.40;99.90
18930;DHT22;43305;52.186;5.598;2024-03-22T10:00:57;10.40;99.90
18930;DHT22;43305;52.186;5.598;2024-03-22T10:03:26;10.30;99.90
18930;DHT22;43305;52.186;5.598;2024-03-22T10:05:52;10.40;99.90
18930;DHT22;43305;52.186;5.598;2024-03-22T10:08:20;10.40;99.90
18930;DHT22;43305;52.186;5.598;2024-03-22T10:10:46;10.40;99.90
18930;DHT22;43305;52.186;5.598;2024-03-22T10:13:13;10.40;99.90
18930;DHT22;43305;52.186;5.598;2024-03-22T10:15:39;10.40;99.90
18930;DHT22;43305;52.186;5.598;2024-03-22T10:18:06;10.40;99.90
18930;DHT22;43305;52.186;5.598;2024-03-22T10:20:31;10.40;99.90
18930;DHT22;43305;52.186;5.598;2024-03-22T10:22:59;10.50;99.90
18930;DHT22;43305;52.186;5.598;2024-03-22T10:25:27;10.50;99.90
18930;DHT22;43305;52.186;5.598;2024-03-22T10:27:55;10.60;99.90
18930;DHT22;43305;52.186;5.598;2024-03-22T10:30:22;10.60;99.90
18930;DHT22;43305;52.186;5.598;2024-03-22T10:32:52;10.50;99.90
18930;DHT22;43305;52.186;5.598;2024-03-22T10:35:18;10.60;99.90
18930;DHT22;43305;52.186;5.598;2024-03-22T10:37:45;10.60;99.90
18930;DHT22;43305;52.186;5.598;2024-03-22T10:40:12;10.60;99.90
18930;DHT22;43305;52.186;5.598;2024-03-22T10:42:41;10.60;99.90
18930;DHT22;43305;52.186;5.598;2024-03-22T10:45:09;10.60;99.90
18930;DHT22;43305;52.186;5.598;2024-03-22T10:47:37;10.60;99.90
18930;DHT22;43305;52.186;5.598;2024-03-22T10:50:06;10.60;99.90
18930;DHT22;43305;52.186;5.598;2024-03-22T10:52:35;10.70;99.90
18930;DHT22;43305;52.186;5.598;2024-03-22T10:55:04;10.70;99.90
18930;DHT22;43305;52.186;5.598;2024-03-22T10:57:33;10.70;99.90
18930;DHT22;43305;52.186;5.598;2024-03-22T11:00:04;10.70;99.90
18930;DHT22;43305;52.186;5.598;2024-03-22T11:02:35;10.70;99.90
18930;DHT22;43305;52.186;5.598;2024-03-22T11:05:01;10.70;99.90
18930;DHT22;43305;52.186;5.598;2024-03-22T11:07:29;10.70;99.90
18930;DHT22;43305;52.186;5.598;2024-03-22T11:10:00;10.70;99.90
18930;DHT22;43305;52.186;5.598;2024-03-22T11:12:28;10.70;99.90
18930;DHT22;43305;52.186;5.598;2024-03-22T11:14:59;10.70;99.90
18930;DHT22;43305;52.186;5.598;2024-03-22T11:17:27;10.70;99.90
18930;DHT22;43305;52.186;5.598;2024-03-22T11:19:53;10.70;99.90
18930;DHT22;43305;52.186;5.598;2024-03-22T11:22:22;10.70;99.90
18930;DHT22;43305;52.186;5.598;2024-03-22T11:24:48;10.80;99.90
18930;DHT22;43305;52.186;5.598;2024-03-22T11:27:15;10.80;99.90
18930;DHT22;43305;52.186;5.598;2024-03-22T11:29:41;10.80;99.90
18930;DHT22;43305;52.186;5.598;2024-03-22T11:32:09;10.80;99.90
18930;DHT22;43305;52.186;5.598;2024-03-22T11:34:44;10.90;99.90
18930;DHT22;43305;52.186;5.598;2024-03-22T11:37:12;10.90;99.90
18930;DHT22;43305;52.186;5.598;2024-03-22T11:39:37;10.90;99.90
18930;DHT22;43305;52.186;5.598;2024-03-22T11:42:06;10.90;99.90
18930;DHT22;43305;52.186;5.598;2024-03-22T11:44:33;11.00;99.90
18930;DHT22;43305;52.186;5.598;2024-03-22T11:47:02;11.00;99.90
18930;DHT22;43305;52.186;5.598;2024-03-22T11:49:29;11.00;99.90
18930;DHT22;43305;52.186;5.598;2024-03-22T11:51:57;11.00;99.90
18930;DHT22;43305;52.186;5.598;2024-03-22T11:54:23;11.00;99.90
18930;DHT22;43305;52.186;5.598;2024-03-22T11:56:55;11.10;99.90
18930;DHT22;43305;52.186;5.598;2024-03-22T11:59:22;11.10;99.90
18930;DHT22;43305;52.186;5.598;2024-03-22T12:01:51;11.20;99.90
18930;DHT22;43305;52.186;5.598;2024-03-22T12:04:17;11.20;99.90
18930;DHT22;43305;52.186;5.598;2024-03-22T12:06:44;11.20;99.90
18930;DHT22;43305;52.186;5.598;2024-03-22T12:09:12;11.10;99.90
18930;DHT22;43305;52.186;5.598;2024-03-22T12:11:39;11.10;99.90
18930;DHT22;43305;52.186;5.598;2024-03-22T12:14:05;11.00;99.90
18930;DHT22;43305;52.186;5.598;2024-03-22T12:16:32;11.10;99.90
18930;DHT22;43305;52.186;5.598;2024-03-22T12:18:58;11.00;99.90
18930;DHT22;43305;52.186;5.598;2024-03-22T12:21:25;11.00;99.90
18930;DHT22;43305;52.186;5.598;2024-03-22T12:23:51;10.90;99.90
18930;DHT22;43305;52.186;5.598;2024-03-22T12:26:19;11.00;99.90
18930;DHT22;43305;52.186;5.598;2024-03-22T12:28:45;10.90;99.90
18930;DHT22;43305;52.186;5.598;2024-03-22T12:31:12;10.90;99.90
18930;DHT22;43305;52.186;5.598;2024-03-22T12:33:38;10.80;99.90
18930;DHT22;43305;52.186;5.598;2024-03-22T12:36:06;10.80;99.90
18930;DHT22;43305;52.186;5.598;2024-03-22T12:38:31;10.90;99.90
18930;DHT22;43305;52.186;5.598;2024-03-22T12:40:59;10.80;99.90
18930;DHT22;43305;52.186;5.598;2024-03-22T12:43:29;10.90;99.90
18930;DHT22;43305;52.186;5.598;2024-03-22T12:45:56;10.90;99.90
18930;DHT22;43305;52.186;5.598;2024-03-22T12:48:25;10.90;99.90
18930;DHT22;43305;52.186;5.598;2024-03-22T12:50:52;10.90;99.90
18930;DHT22;43305;52.186;5.598;2024-03-22T12:53:18;10.80;99.90
18930;DHT22;43305;52.186;5.598;2024-03-22T12:55:45;10.80;99.90
18930;DHT22;43305;52.186;5.598;2024-03-22T12:58:11;10.70;99.90
18930;DHT22;43305;52.186;5.598;2024-03-22T13:00:39;10.70;99.90
18930;DHT22;43305;52.186;5.598;2024-03-22T13:03:05;10.70;99.90
18930;DHT22;43305;52.186;5.598;2024-03-22T13:05:33;10.70;99.90
18930;DHT22;43305;52.186;5.598;2024-03-22T13:07:58;10.70;99.90
18930;DHT22;43305;52.186;5.598;2024-03-22T13:10:25;10.70;99.90
18930;DHT22;43305;52.186;5.598;2024-03-22T13:12:51;10.70;99.90
18930;DHT22;43305;52.186;5.598;2024-03-22T13:15:18;10.70;99.90
18930;DHT22;43305;52.186;5.598;2024-03-22T13:17:46;10.70;99.90
18930;DHT22;43305;52.186;5.598;2024-03-22T13:20:13;10.70;99.90
18930;DHT22;43305;52.186;5.598;2024-03-22T13:22:41;10.70;99.90
18930;DHT22;43305;52.186;5.598;2024-03-22T13:25:08;10.80;99.90
18930;DHT22;43305;52.186;5.598;2024-03-22T13:27:36;10.80;99.90
18930;DHT22;43305;52.186;5.598;2024-03-22T13:30:06;10.80;99.90
18930;DHT22;43305;52.186;5.598;2024-03-22T13:32:35;10.80;99.90
18930;DHT22;43305;52.186;5.598;2024-03-22T13:35:04;10.80;99.90
18930;DHT22;43305;52.186;5.598;2024-03-22T13:37:30;10.80;99.90
18930;DHT22;43305;52.186;5.598;2024-03-22T13:39:58;10.80;99.90
18930;DHT22;43305;52.186;5.598;2024-03-22T13:42:24;10.80;99.90
18930;DHT22;43305;52.186;5.598;2024-03-22T13:44:51;10.70;99.90
18930;DHT22;43305;52.186;5.598;2024-03-22T13:47:17;10.60;99.90
18930;DHT22;43305;52.186;5.598;2024-03-22T13:49:44;10.60;99.90
18930;DHT22;43305;52.186;5.598;2024-03-22T13:52:11;10.70;99.90
18930;DHT22;43305;52.186;5.598;2024-03-22T13:54:38;10.70;99.90
18930;DHT22;43305;52.186;5.598;2024-03-22T13:57:05;10.60;99.90
18930;DHT22;43305;52.186;5.598;2024-03-22T13:59:31;10.70;99.90
18930;DHT22;43305;52.186;5.598;2024-03-22T14:01:57;10.70;99.90
18930;DHT22;43305;52.186;5.598;2024-03-22T14:04:25;10.60;99.90
18930;DHT22;43305;52.186;5.598;2024-03-22T14:06:52;10.60;99.90
18930;DHT22;43305;52.186;5.598;2024-03-22T14:09:21;10.60;99.90
18930;DHT22;43305;52.186;5.598;2024-03-22T14:11:47;10.50;99.90
18930;DHT22;43305;52.186;5.598;2024-03-22T14:14:14;10.50;99.90
18930;DHT22;43305;52.186;5.598;2024-03-22T14:16:41;10.50;99.90
18930;DHT22;43305;52.186;5.598;2024-03-22T14:19:08;10.50;99.90
18930;DHT22;43305;52.186;5.598;2024-03-22T14:21:34;10.50;99.90
18930;DHT22;43305;52.186;5.598;2024-03-22T14:24:01;10.60;99.90
18930;DHT22;43305;52.186;5.598;2024-03-22T14:26:28;10.70;99.90
18930;DHT22;43305;52.186;5.598;2024-03-22T14:28:58;10.70;99.90
18930;DHT22;43305;52.186;5.598;2024-03-22T14:31:24;10.70;99.90
18930;DHT22;43305;52.186;5.598;2024-03-22T14:33:58;10.70;99.90
18930;DHT22;43305;52.186;5.598;2024-03-22T14:36:23;10.90;99.90
18930;DHT22;43305;52.186;5.598;2024-03-22T14:38:53;11.00;99.90
18930;DHT22;43305;52.186;5.598;2024-03-22T14:41:19;11.00;99.90
18930;DHT22;43305;52.186;5.598;2024-03-22T14:43:47;11.00;99.90
18930;DHT22;43305;52.186;5.598;2024-03-22T14:46:13;11.00;99.90
18930;DHT22;43305;52.186;5.598;2024-03-22T14:48:40;11.00;99.90
18930;DHT22;43305;52.186;5.598;2024-03-22T14:51:05;11.00;99.90
18930;DHT22;43305;52.186;5.598;2024-03-22T14:53:34;10.90;99.90
18930;DHT22;43305;52.186;5.598;2024-03-22T14:56:02;10.90;99.90
18930;DHT22;43305;52.186;5.598;2024-03-22T14:58:30;10.90;99.90
18930;DHT22;43305;52.186;5.598;2024-03-22T15:00:58;10.90;99.90
18930;DHT22;43305;52.186;5.598;2024-03-22T15:03:26;10.90;99.90
18930;DHT22;43305;52.186;5.598;2024-03-22T15:05:53;10.90;99.90
18930;DHT22;43305;52.186;5.598;2024-03-22T15:08:23;10.90;99.90
18930;DHT22;43305;52.186;5.598;2024-03-22T15:10:52;10.90;99.90
18930;DHT22;43305;52.186;5.598;2024-03-22T15:13:19;10.80;99.90
18930;DHT22;43305;52.186;5.598;2024-03-22T15:15:52;10.80;99.90
18930;DHT22;43305;52.186;5.598;2024-03-22T15:18:20;10.80;99.90
18930;DHT22;43305;52.186;5.598;2024-03-22T15:20:46;10.70;99.90
18930;DHT22;43305;52.186;5.598;2024-03-22T15:23:13;10.70;99.90
18930;DHT22;43305;52.186;5.598;2024-03-22T15:25:40;10.60;99.90
18930;DHT22;43305;52.186;5.598;2024-03-22T15:28:07;10.60;99.90
18930;DHT22;43305;52.186;5.598;2024-03-22T15:30:33;10.60;99.90